createdAt,value
2023-04-04T00:02:01.662Z,1.70
2023-04-04T00:04:29.649Z,1.70
2023-04-04T00:06:57.809Z,1.70
2023-04-04T00:09:25.862Z,1.70
2023-04-04T00:11:53.976Z,1.70
2023-04-04T00:14:22.457Z,1.60
2023-04-04T00:16:51.890Z,1.60
2023-04-04T00:19:19.835Z,1.60
2023-04-04T00:21:47.832Z,1.60
2023-04-04T00:24:19.716Z,1.50
2023-04-04T00:26:47.732Z,1.50
2023-04-04T00:29:15.729Z,1.50
2023-04-04T00:31:43.765Z,1.50
2023-04-04T00:34:13.211Z,1.50
2023-04-04T00:36:41.738Z,1.50
2023-04-04T00:39:09.975Z,1.50
2023-04-04T00:41:38.555Z,1.50
2023-04-04T00:44:08.377Z,1.40
2023-04-04T00:46:38.694Z,1.40
2023-04-04T00:49:07.558Z,1.40
2023-04-04T00:51:39.028Z,1.30
2023-04-04T00:54:09.228Z,1.30
2023-04-04T00:56:41.573Z,1.30
2023-04-04T00:59:11.741Z,1.30
2023-04-04T01:01:39.966Z,1.30
2023-04-04T01:04:07.993Z,1.20
2023-04-04T01:06:38.360Z,1.20
2023-04-04T01:09:07.324Z,1.20
2023-04-04T01:11:36.307Z,1.20
2023-04-04T01:14:04.292Z,1.10
2023-04-04T01:16:32.308Z,1.00
2023-04-04T01:19:00.473Z,1.10
2023-04-04T01:21:30.593Z,1.20
2023-04-04T01:24:03.027Z,1.10
2023-04-04T01:26:33.490Z,1.10
2023-04-04T01:29:01.698Z,1.00
2023-04-04T01:31:33.519Z,1.10
2023-04-04T01:34:10.796Z,1.00
2023-04-04T01:36:44.635Z,1.00
2023-04-04T01:39:19.778Z,1.00
2023-04-04T01:41:50.251Z,1.00
2023-04-04T01:44:22.889Z,1.00
2023-04-04T01:46:59.325Z,1.00
2023-04-04T01:49:27.831Z,1.00
2023-04-04T01:51:56.916Z,0.90
2023-04-04T01:54:26.114Z,0.90
2023-04-04T01:56:57.352Z,0.90
2023-04-04T01:59:25.883Z,0.90
2023-04-04T02:01:55.365Z,0.90
2023-04-04T02:04:28.235Z,0.80
2023-04-04T02:06:57.164Z,0.80
2023-04-04T02:09:25.607Z,0.80
2023-04-04T02:11:58.720Z,0.70
2023-04-04T02:14:26.698Z,0.70
2023-04-04T02:16:54.669Z,0.70
2023-04-04T02:19:22.695Z,0.70
2023-04-04T02:21:56.565Z,0.60
2023-04-04T02:24:24.636Z,0.60
2023-04-04T02:26:52.649Z,0.60
2023-04-04T02:29:21.970Z,0.60
2023-04-04T02:31:49.985Z,0.60
2023-04-04T02:34:18.288Z,0.50
2023-04-04T02:36:46.347Z,0.40
2023-04-04T02:39:15.354Z,0.40
2023-04-04T02:41:43.370Z,0.40
2023-04-04T02:44:12.469Z,0.40
2023-04-04T02:46:43.837Z,0.40
2023-04-04T02:49:12.557Z,0.40
2023-04-04T02:51:40.652Z,0.30
2023-04-04T02:54:11.808Z,0.40
2023-04-04T02:56:39.863Z,0.40
2023-04-04T02:59:07.900Z,0.30
2023-04-04T03:01:35.973Z,0.20
2023-04-04T03:04:05.833Z,0.10
2023-04-04T03:06:49.252Z,0.10
2023-04-04T03:09:17.245Z,0.10
2023-04-04T03:11:45.885Z,0.10
2023-04-04T03:14:13.873Z,0.20
2023-04-04T03:16:42.066Z,0.00
2023-04-04T03:19:12.100Z,0.00
2023-04-04T03:21:40.065Z,-0.10
2023-04-04T03:24:08.393Z,-0.20
2023-04-04T03:26:36.504Z,-0.20
2023-04-04T03:29:04.862Z,-0.10
2023-04-04T03:31:37.103Z,-0.10
2023-04-04T03:34:05.388Z,-0.20
2023-04-04T03:36:35.776Z,-0.10
2023-04-04T03:39:03.802Z,-0.10
2023-04-04T03:41:31.788Z,-0.10
2023-04-04T03:43:59.768Z,-0.10
2023-04-04T03:46:27.922Z,-0.10
2023-04-04T03:49:07.865Z,-0.20
2023-04-04T03:51:37.331Z,-0.20
2023-04-04T03:54:05.536Z,-0.30
2023-04-04T03:56:33.685Z,-0.30
2023-04-04T03:59:01.808Z,-0.30
2023-04-04T04:01:31.045Z,-0.20
2023-04-04T04:04:01.147Z,-0.20
2023-04-04T04:06:29.383Z,-0.30
2023-04-04T04:08:58.958Z,-0.30
2023-04-04T04:11:28.141Z,-0.40
2023-04-04T04:13:56.598Z,-0.40
2023-04-04T04:16:24.675Z,-0.40
2023-04-04T04:18:52.736Z,-0.50
2023-04-04T04:21:23.882Z,-0.50
2023-04-04T04:23:51.812Z,-0.50
2023-04-04T04:26:21.320Z,-0.40
2023-04-04T04:28:49.338Z,-0.50
2023-04-04T04:31:17.335Z,-0.50
2023-04-04T04:33:45.890Z,-0.60
2023-04-04T04:36:17.483Z,-0.60
2023-04-04T04:38:47.581Z,-0.60
2023-04-04T04:41:15.647Z,-0.60
2023-04-04T04:43:45.508Z,-0.60
2023-04-04T04:46:14.970Z,-0.70
2023-04-04T04:48:43.123Z,-0.80
2023-04-04T04:51:12.385Z,-0.80
2023-04-04T04:53:40.661Z,-0.90
2023-04-04T04:56:09.036Z,-0.80
2023-04-04T04:58:37.041Z,-0.80
2023-04-04T05:01:06.549Z,-0.80
2023-04-04T05:03:35.086Z,-0.40
2023-04-04T05:06:03.076Z,-0.70
2023-04-04T05:08:32.494Z,-0.70
2023-04-04T05:11:00.612Z,-0.70
2023-04-04T05:13:28.594Z,-0.60
2023-04-04T05:15:56.693Z,-0.50
2023-04-04T05:18:27.479Z,-0.60
2023-04-04T05:20:55.838Z,-0.50
2023-04-04T05:23:23.991Z,-0.50
2023-04-04T05:25:53.267Z,-0.50
2023-04-04T05:28:21.799Z,-0.50
2023-04-04T05:30:50.204Z,-0.50
2023-04-04T05:33:20.381Z,-0.40
2023-04-04T05:35:49.888Z,-0.30
2023-04-04T05:38:17.991Z,-0.20
2023-04-04T05:40:47.948Z,-0.10
2023-04-04T05:43:15.907Z,-0.10
2023-04-04T05:45:43.904Z,-0.10
2023-04-04T05:48:11.920Z,-0.10
2023-04-04T05:50:39.984Z,0.00
2023-04-04T05:53:09.428Z,0.00
2023-04-04T05:55:37.378Z,0.00
2023-04-04T05:58:05.481Z,0.10
2023-04-04T06:00:33.460Z,0.10
2023-04-04T06:03:01.688Z,0.20
2023-04-04T06:05:29.765Z,0.20
2023-04-04T06:07:57.904Z,0.20
2023-04-04T06:10:27.874Z,0.30
2023-04-04T06:12:55.965Z,0.30
2023-04-04T06:15:23.959Z,0.30
2023-04-04T06:17:51.950Z,0.40
2023-04-04T06:20:22.659Z,0.40
2023-04-04T06:22:50.771Z,0.50
2023-04-04T06:25:19.227Z,0.60
2023-04-04T06:27:48.687Z,0.60
2023-04-04T06:30:18.146Z,0.60
2023-04-04T06:32:46.136Z,0.70
2023-04-04T06:35:14.144Z,0.80
2023-04-04T06:37:42.148Z,0.80
2023-04-04T06:40:10.910Z,0.90
2023-04-04T06:42:38.938Z,1.20
2023-04-04T06:45:09.426Z,1.40
2023-04-04T06:47:37.437Z,1.70
2023-04-04T06:50:06.075Z,1.90
2023-04-04T06:52:34.549Z,2.20
2023-04-04T06:55:02.540Z,2.50
2023-04-04T06:57:30.540Z,2.80
2023-04-04T07:00:03.322Z,2.90
2023-04-04T07:02:38.660Z,3.20
2023-04-04T07:05:17.778Z,3.30
2023-04-04T07:07:54.526Z,3.10
2023-04-04T07:10:22.504Z,3.20
2023-04-04T07:12:51.066Z,3.10
2023-04-04T07:15:19.384Z,3.40
2023-04-04T07:17:48.895Z,3.40
2023-04-04T07:20:16.889Z,3.50
2023-04-04T07:22:44.853Z,3.50
2023-04-04T07:25:13.520Z,3.70
2023-04-04T07:27:41.859Z,3.80
2023-04-04T07:30:11.118Z,3.80
2023-04-04T07:32:39.289Z,4.00
2023-04-04T07:35:09.672Z,3.80
2023-04-04T07:37:38.656Z,3.60
2023-04-04T07:40:09.425Z,4.20
2023-04-04T07:42:37.987Z,4.00
2023-04-04T07:45:06.529Z,4.40
2023-04-04T07:47:34.517Z,4.60
2023-04-04T07:50:02.622Z,4.40
2023-04-04T07:52:32.007Z,4.50
2023-04-04T07:55:01.011Z,4.90
2023-04-04T07:57:29.064Z,4.80
2023-04-04T07:59:57.139Z,4.60
2023-04-04T08:02:25.343Z,4.50
2023-04-04T08:04:55.939Z,4.60
2023-04-04T08:07:29.266Z,4.90
2023-04-04T08:09:59.807Z,5.10
2023-04-04T08:12:27.851Z,5.30
2023-04-04T08:14:55.977Z,4.90
2023-04-04T08:17:24.725Z,4.60
2023-04-04T08:19:52.781Z,4.90
2023-04-04T08:22:21.142Z,5.00
2023-04-04T08:24:49.165Z,4.90
2023-04-04T08:27:18.686Z,5.10
2023-04-04T08:29:48.017Z,5.30
2023-04-04T08:32:17.060Z,5.50
2023-04-04T08:34:45.035Z,5.60
2023-04-04T08:37:13.057Z,5.80
2023-04-04T08:39:41.032Z,5.50
2023-04-04T08:42:09.441Z,5.60
2023-04-04T08:44:39.565Z,5.90
2023-04-04T08:47:10.521Z,5.70
2023-04-04T08:49:42.389Z,5.50
2023-04-04T08:52:13.004Z,5.90
2023-04-04T08:54:43.367Z,5.90
2023-04-04T08:57:11.817Z,5.70
2023-04-04T08:59:41.400Z,5.70
2023-04-04T09:02:20.943Z,5.90
2023-04-04T09:05:02.431Z,6.10
2023-04-04T09:07:34.373Z,6.40
2023-04-04T09:10:11.733Z,6.30
2023-04-04T09:12:43.139Z,6.60
2023-04-04T09:15:13.604Z,7.00
2023-04-04T09:17:41.817Z,7.40
2023-04-04T09:20:35.942Z,7.60
2023-04-04T09:23:07.808Z,8.00
2023-04-04T09:25:36.584Z,7.20
2023-04-04T09:28:05.697Z,7.10
2023-04-04T09:30:36.155Z,7.00
2023-04-04T09:33:06.180Z,7.20
2023-04-04T09:35:36.493Z,7.80
2023-04-04T09:38:04.817Z,7.90
2023-04-04T09:40:33.509Z,8.10
2023-04-04T09:43:02.433Z,8.40
2023-04-04T09:45:32.639Z,8.00
2023-04-04T09:48:02.229Z,7.90
2023-04-04T09:50:30.497Z,8.30
2023-04-04T09:53:00.458Z,8.90
2023-04-04T09:55:36.334Z,8.70
2023-04-04T09:58:13.533Z,8.70
2023-04-04T10:00:44.926Z,8.80
2023-04-04T10:03:16.057Z,8.30
2023-04-04T10:05:45.838Z,8.20
2023-04-04T10:08:18.603Z,8.00
2023-04-04T10:11:02.658Z,8.00
2023-04-04T10:13:40.839Z,7.80
2023-04-04T10:16:10.732Z,8.20
2023-04-04T10:18:40.893Z,7.90
2023-04-04T10:23:42.863Z,8.30
2023-04-04T10:26:12.564Z,8.80
2023-04-04T10:28:42.190Z,8.20
2023-04-04T10:31:17.359Z,8.10
2023-04-04T10:33:53.801Z,8.50
2023-04-04T10:36:24.683Z,9.10
2023-04-04T10:39:04.783Z,8.80
2023-04-04T10:41:33.633Z,8.80
2023-04-04T10:44:12.808Z,9.00
2023-04-04T10:46:44.295Z,9.20
2023-04-04T10:49:14.302Z,9.30
2023-04-04T10:51:54.932Z,9.00
2023-04-04T10:54:24.307Z,9.30
2023-04-04T10:56:52.810Z,8.70
2023-04-04T10:59:21.892Z,8.80
2023-04-04T11:01:52.102Z,8.90
2023-04-04T11:04:29.597Z,9.10
2023-04-04T11:07:17.404Z,8.90
2023-04-04T11:09:56.379Z,9.40
2023-04-04T11:12:36.251Z,9.20
2023-04-04T11:15:12.889Z,9.00
2023-04-04T11:17:56.546Z,9.70
2023-04-04T11:20:30.800Z,9.00
2023-04-04T11:23:06.560Z,9.00
2023-04-04T11:25:39.831Z,9.00
2023-04-04T11:28:25.919Z,8.90
2023-04-04T11:31:25.024Z,8.60
2023-04-04T11:34:04.542Z,8.90
2023-04-04T11:36:53.437Z,8.80
2023-04-04T11:39:29.493Z,9.00
2023-04-04T11:42:03.506Z,8.90
2023-04-04T11:44:34.276Z,9.30
2023-04-04T11:47:04.470Z,9.60
2023-04-04T11:49:35.761Z,9.20
2023-04-04T11:52:11.073Z,9.50
2023-04-04T11:54:40.054Z,9.20
2023-04-04T11:57:18.851Z,9.20
2023-04-04T11:59:48.838Z,9.70
2023-04-04T12:02:20.674Z,9.60
2023-04-04T12:04:49.115Z,10.00
2023-04-04T12:07:18.841Z,10.30
2023-04-04T12:09:47.210Z,10.30
2023-04-04T12:12:24.263Z,10.20
2023-04-04T12:14:52.764Z,9.70
2023-04-04T12:17:21.683Z,9.50
2023-04-04T12:19:49.639Z,9.40
2023-04-04T12:22:20.282Z,9.30
2023-04-04T12:24:48.366Z,10.10
2023-04-04T12:27:16.615Z,10.10
2023-04-04T12:29:47.599Z,9.90
2023-04-04T12:32:16.375Z,9.80
2023-04-04T12:34:48.772Z,9.80
2023-04-04T12:37:23.602Z,9.50
2023-04-04T12:39:52.384Z,9.30
2023-04-04T12:42:24.361Z,9.60
2023-04-04T12:44:53.794Z,9.80
2023-04-04T12:47:28.692Z,10.00
2023-04-04T12:49:57.144Z,10.20
2023-04-04T12:52:41.035Z,9.60
2023-04-04T12:55:12.893Z,9.50
2023-04-04T12:57:41.414Z,10.20
2023-04-04T13:00:10.451Z,9.70
2023-04-04T13:02:41.091Z,9.70
2023-04-04T13:05:11.223Z,9.90
2023-04-04T13:07:45.944Z,10.10
2023-04-04T13:10:16.464Z,9.50
2023-04-04T13:12:58.639Z,9.60
2023-04-04T13:15:49.165Z,10.10
2023-04-04T13:18:18.597Z,9.70
2023-04-04T13:20:46.696Z,9.70
2023-04-04T13:23:16.917Z,10.20
2023-04-04T13:25:46.053Z,10.10
2023-04-04T13:28:14.397Z,10.70
2023-04-04T13:30:46.795Z,10.60
2023-04-04T13:33:16.198Z,10.00
2023-04-04T13:35:45.863Z,9.40
2023-04-04T13:38:15.323Z,9.60
2023-04-04T13:40:44.322Z,9.70
2023-04-04T13:43:34.024Z,9.50
2023-04-04T13:46:02.208Z,9.70
2023-04-04T13:48:31.211Z,9.70
2023-04-04T13:50:59.204Z,9.50
2023-04-04T13:53:28.504Z,9.80
2023-04-04T13:56:17.167Z,9.30
2023-04-04T13:58:44.496Z,9.50
2023-04-04T14:01:12.569Z,10.40
2023-04-04T14:03:48.958Z,10.30
2023-04-04T14:06:16.966Z,9.80
2023-04-04T14:08:47.683Z,9.70
2023-04-04T14:11:16.100Z,9.80
2023-04-04T14:13:44.098Z,9.50
2023-04-04T14:16:12.353Z,9.40
2023-04-04T14:18:40.482Z,9.70
2023-04-04T14:21:09.471Z,9.50
2023-04-04T14:23:37.520Z,9.40
2023-04-04T14:26:07.269Z,9.70
2023-04-04T14:28:41.317Z,9.90
2023-04-04T14:31:09.497Z,10.20
2023-04-04T14:33:37.532Z,10.30
2023-04-04T14:36:06.313Z,10.00
2023-04-04T14:38:34.307Z,9.70
2023-04-04T14:41:02.409Z,9.40
2023-04-04T14:43:31.973Z,9.70
2023-04-04T14:45:59.966Z,9.50
2023-04-04T14:48:28.056Z,9.70
2023-04-04T14:50:56.060Z,9.30
2023-04-04T14:53:24.152Z,9.20
2023-04-04T14:56:02.327Z,9.00
2023-04-04T14:58:33.269Z,9.00
2023-04-04T15:01:05.993Z,9.30
2023-04-04T15:03:34.958Z,9.10
2023-04-04T15:06:04.367Z,9.00
2023-04-04T15:08:32.376Z,9.40
2023-04-04T15:11:02.485Z,9.30
2023-04-04T15:13:32.137Z,9.20
2023-04-04T15:16:01.452Z,9.50
2023-04-04T15:18:29.564Z,9.50
2023-04-04T15:20:59.170Z,9.60
2023-04-04T15:23:27.231Z,10.00
2023-04-04T15:25:55.301Z,10.10
2023-04-04T15:28:25.510Z,10.10
2023-04-04T15:30:57.523Z,10.60
2023-04-04T15:33:38.242Z,10.10
2023-04-04T15:36:06.766Z,10.20
2023-04-04T15:38:34.808Z,10.00
2023-04-04T15:41:02.774Z,9.80
2023-04-04T15:43:32.436Z,10.40
2023-04-04T15:46:03.515Z,10.30
2023-04-04T15:48:36.843Z,10.60
2023-04-04T15:51:07.997Z,10.30
2023-04-04T15:53:38.064Z,10.40
2023-04-04T15:56:07.536Z,10.20
2023-04-04T15:58:38.725Z,10.00
2023-04-04T16:01:08.793Z,10.00
2023-04-04T16:03:38.991Z,10.10
2023-04-04T16:06:13.855Z,9.80
2023-04-04T16:08:44.554Z,9.60
2023-04-04T16:11:19.372Z,9.50
2023-04-04T16:13:49.809Z,9.40
2023-04-04T16:16:19.635Z,9.40
2023-04-04T16:18:47.669Z,9.70
2023-04-04T16:21:16.743Z,9.40
2023-04-04T16:23:44.741Z,9.20
2023-04-04T16:26:16.950Z,9.20
2023-04-04T16:28:47.187Z,9.00
2023-04-04T16:31:21.971Z,8.80
2023-04-04T16:33:49.949Z,8.80
2023-04-04T16:36:18.096Z,8.70
2023-04-04T16:38:47.103Z,8.70
2023-04-04T16:41:17.439Z,8.70
2023-04-04T16:43:49.612Z,8.60
2023-04-04T16:46:18.666Z,8.60
2023-04-04T16:48:57.951Z,8.40
2023-04-04T16:51:29.830Z,8.60
2023-04-04T16:54:00.950Z,8.10
2023-04-04T16:56:33.046Z,8.10
2023-04-04T16:59:02.323Z,7.80
2023-04-04T17:01:31.957Z,7.50
2023-04-04T17:04:07.524Z,7.50
2023-04-04T17:06:37.596Z,7.20
2023-04-04T17:09:05.570Z,7.00
2023-04-04T17:11:44.464Z,6.90
2023-04-04T17:14:21.376Z,6.70
2023-04-04T17:16:52.327Z,6.60
2023-04-04T17:19:23.793Z,6.50
2023-04-04T17:21:52.210Z,6.40
2023-04-04T17:24:23.150Z,6.30
2023-04-04T17:26:53.501Z,6.30
2023-04-04T17:29:26.832Z,6.20
2023-04-04T17:31:56.143Z,6.10
2023-04-04T17:34:25.709Z,6.10
2023-04-04T17:36:54.375Z,6.00
2023-04-04T17:39:23.660Z,5.90
2023-04-04T17:41:53.752Z,5.90
2023-04-04T17:44:31.275Z,5.80
2023-04-04T17:46:59.686Z,5.70
2023-04-04T17:49:31.349Z,5.60
2023-04-04T17:51:59.295Z,5.50
2023-04-04T17:54:28.313Z,5.40
2023-04-04T17:56:57.184Z,5.40
2023-04-04T17:59:25.234Z,5.40
2023-04-04T18:01:53.425Z,5.40
2023-04-04T18:04:22.253Z,5.30
2023-04-04T18:06:54.471Z,5.20
2023-04-04T18:09:29.516Z,5.30
2023-04-04T18:12:00.979Z,5.00
2023-04-04T18:14:31.388Z,5.00
2023-04-04T18:16:59.334Z,4.90
2023-04-04T18:19:27.358Z,4.90
2023-04-04T18:22:09.389Z,4.90
2023-04-04T18:24:37.981Z,4.80
2023-04-04T18:27:06.332Z,4.70
2023-04-04T18:29:35.338Z,4.80
2023-04-04T18:32:04.659Z,4.70
2023-04-04T18:34:34.750Z,4.70
2023-04-04T18:37:02.680Z,4.60
2023-04-04T18:39:32.041Z,4.50
2023-04-04T18:42:00.181Z,4.50
2023-04-04T18:44:28.221Z,4.40
2023-04-04T18:46:58.149Z,4.40
2023-04-04T18:49:31.526Z,4.40
2023-04-04T18:51:59.510Z,4.40
2023-04-04T18:54:28.879Z,4.40
2023-04-04T18:56:58.379Z,4.30
2023-04-04T18:59:26.831Z,4.20
2023-04-04T19:01:57.976Z,4.00
2023-04-04T19:04:26.103Z,3.80
2023-04-04T19:06:55.253Z,3.70
2023-04-04T19:09:33.756Z,3.70
2023-04-04T19:12:03.932Z,3.60
2023-04-04T19:14:31.938Z,3.70
2023-04-04T19:17:00.056Z,3.60
2023-04-04T19:19:29.024Z,3.60
2023-04-04T19:21:57.155Z,3.50
2023-04-04T19:24:26.054Z,3.50
2023-04-04T19:27:10.680Z,3.50
2023-04-04T19:29:39.985Z,3.60
2023-04-04T19:32:13.922Z,3.50
2023-04-04T19:34:44.639Z,3.50
2023-04-04T19:37:13.282Z,3.40
2023-04-04T19:39:43.672Z,3.30
2023-04-04T19:42:13.246Z,3.20
2023-04-04T19:44:42.042Z,3.20
2023-04-04T19:47:18.671Z,3.10
2023-04-04T19:49:54.773Z,3.10
2023-04-04T19:52:25.330Z,2.90
2023-04-04T19:54:53.320Z,3.10
2023-04-04T19:57:24.135Z,3.10
2023-04-04T20:00:02.008Z,3.00
2023-04-04T20:02:50.732Z,3.00
2023-04-04T20:05:57.747Z,3.00
2023-04-04T20:08:33.498Z,2.90
2023-04-04T20:11:02.870Z,2.80
2023-04-04T20:13:35.020Z,2.70
2023-04-04T20:16:06.113Z,2.70
2023-04-04T20:18:35.937Z,2.60
2023-04-04T20:21:13.452Z,2.60
2023-04-04T20:23:52.309Z,2.60
2023-04-04T20:26:59.138Z,2.60
2023-04-04T20:29:30.952Z,2.50
2023-04-04T20:32:03.012Z,2.50
2023-04-04T20:34:42.819Z,2.40
2023-04-04T20:37:13.834Z,2.50
2023-04-04T20:39:47.061Z,2.50
2023-04-04T20:42:21.232Z,2.50
2023-04-04T20:45:00.594Z,2.40
2023-04-04T20:47:43.588Z,2.50
2023-04-04T20:50:44.012Z,2.50
2023-04-04T20:53:20.373Z,2.60
2023-04-04T20:55:50.296Z,2.60
2023-04-04T20:58:27.930Z,2.60
2023-04-04T21:00:58.328Z,2.60
2023-04-04T21:03:35.311Z,2.60
2023-04-04T21:06:32.794Z,2.60
2023-04-04T21:09:02.029Z,2.60
2023-04-04T21:11:30.480Z,2.50
2023-04-04T21:13:59.539Z,2.50
2023-04-04T21:16:32.078Z,2.40
2023-04-04T21:19:02.699Z,2.30
2023-04-04T21:21:36.518Z,2.30
2023-04-04T21:24:10.000Z,2.20
2023-04-04T21:26:46.173Z,2.20
2023-04-04T21:29:22.362Z,2.20
2023-04-04T21:31:54.295Z,2.20
2023-04-04T21:34:25.127Z,2.10
2023-04-04T21:37:03.305Z,2.10
2023-04-04T21:39:33.352Z,2.10
2023-04-04T21:42:06.826Z,2.10
2023-04-04T21:44:36.680Z,2.00
2023-04-04T21:47:06.702Z,2.00
2023-04-04T21:49:34.719Z,2.00
2023-04-04T21:52:02.789Z,2.00
2023-04-04T21:54:30.781Z,2.00
2023-04-04T21:56:58.820Z,2.00
2023-04-04T21:59:26.878Z,2.00
2023-04-04T22:01:59.075Z,2.10
2023-04-04T22:04:28.594Z,2.10
2023-04-04T22:06:58.669Z,2.00
2023-04-04T22:09:29.711Z,2.00
2023-04-04T22:11:58.943Z,1.90
2023-04-04T22:14:27.398Z,1.80
2023-04-04T22:16:58.898Z,1.80
2023-04-04T22:19:43.867Z,1.70
2023-04-04T22:22:11.897Z,1.70
2023-04-04T22:24:40.819Z,1.70
2023-04-04T22:27:08.855Z,1.60
2023-04-04T22:29:36.868Z,1.70
2023-04-04T22:32:05.169Z,1.60
2023-04-04T22:34:37.176Z,1.60
2023-04-04T22:37:05.454Z,1.60
2023-04-04T22:39:34.696Z,1.60
2023-04-04T22:42:12.679Z,1.60
2023-04-04T22:44:48.126Z,1.50
2023-04-04T22:47:26.083Z,1.50
2023-04-04T22:50:04.639Z,1.50
2023-04-04T22:52:42.107Z,1.50
2023-04-04T22:55:12.976Z,1.50
2023-04-04T22:57:45.140Z,1.60
2023-04-04T23:00:14.705Z,1.60
2023-04-04T23:02:43.913Z,1.60
2023-04-04T23:05:18.055Z,1.80
2023-04-04T23:07:47.355Z,1.70
2023-04-04T23:10:16.714Z,1.70
2023-04-04T23:12:44.859Z,1.70
2023-04-04T23:15:13.677Z,1.70
2023-04-04T23:17:41.726Z,1.70
2023-04-04T23:20:13.265Z,1.70
2023-04-04T23:22:41.654Z,1.80
2023-04-04T23:25:11.390Z,1.70
2023-04-04T23:27:40.157Z,1.70
2023-04-04T23:30:09.853Z,1.70
2023-04-04T23:32:37.877Z,1.70
2023-04-04T23:35:06.666Z,1.70
2023-04-04T23:37:36.037Z,1.70
2023-04-04T23:40:12.490Z,1.80
2023-04-04T23:42:40.731Z,1.80
2023-04-04T23:45:10.109Z,1.80
2023-04-04T23:47:40.779Z,1.70
2023-04-04T23:50:09.791Z,1.70
2023-04-04T23:52:39.478Z,1.60
2023-04-04T23:55:08.517Z,1.50
2023-04-04T23:57:36.674Z,1.50
